sensor_id;sensor_type;location;lat;lon;timestamp;pressure;altitude;pressure_sealevel;temperature;humidity
22653;BME280;11493;43.344;26.226;2022-08-19T00:01:28;98865.50;;;24.77;75.44
22653;BME280;11493;43.344;26.226;2022-08-19T00:04:00;98875.56;;;24.74;75.32
22653;BME280;11493;43.344;26.226;2022-08-19T00:06:28;98869.22;;;24.67;76.07
22653;BME280;11493;43.344;26.226;2022-08-19T00:08:55;98883.81;;;24.58;76.42
22653;BME280;11493;43.344;26.226;2022-08-19T00:11:23;98879.81;;;24.55;76.47
22653;BME280;11493;43.344;26.226;2022-08-19T00:13:52;98882.66;;;24.52;76.80
22653;BME280;11493;43.344;26.226;2022-08-19T00:16:19;98872.28;;;24.49;76.98
22653;BME280;11493;43.344;26.226;2022-08-19T00:18:52;98880.38;;;24.43;77.32
22653;BME280;11493;43.344;26.226;2022-08-19T00:21:20;98879.16;;;24.44;77.22
22653;BME280;11493;43.344;26.226;2022-08-19T00:23:47;98877.53;;;24.47;77.25
22653;BME280;11493;43.344;26.226;2022-08-19T00:26:14;98875.97;;;24.42;77.74
22653;BME280;11493;43.344;26.226;2022-08-19T00:28:41;98882.44;;;24.39;77.79
22653;BME280;11493;43.344;26.226;2022-08-19T00:31:08;98867.63;;;24.35;77.87
22653;BME280;11493;43.344;26.226;2022-08-19T00:33:35;98875.25;;;24.35;78.10
22653;BME280;11493;43.344;26.226;2022-08-19T00:36:03;98864.06;;;24.28;78.35
22653;BME280;11493;43.344;26.226;2022-08-19T00:38:31;98865.72;;;24.21;78.80
22653;BME280;11493;43.344;26.226;2022-08-19T00:41:03;98872.94;;;24.22;78.59
22653;BME280;11493;43.344;26.226;2022-08-19T00:43:30;98871.75;;;24.20;78.65
22653;BME280;11493;43.344;26.226;2022-08-19T00:45:58;98870.22;;;24.12;79.22
22653;BME280;11493;43.344;26.226;2022-08-19T00:48:25;98879.91;;;24.07;79.61
22653;BME280;11493;43.344;26.226;2022-08-19T00:50:53;98870.72;;;24.03;80.11
22653;BME280;11493;43.344;26.226;2022-08-19T00:53:23;98875.16;;;24.01;80.34
22653;BME280;11493;43.344;26.226;2022-08-19T00:55:51;98884.84;;;23.96;80.30
22653;BME280;11493;43.344;26.226;2022-08-19T00:58:20;98881.19;;;23.99;80.04
22653;BME280;11493;43.344;26.226;2022-08-19T01:00:49;98893.25;;;23.96;80.50
22653;BME280;11493;43.344;26.226;2022-08-19T01:03:17;98883.28;;;23.91;81.05
22653;BME280;11493;43.344;26.226;2022-08-19T01:05:45;98897.34;;;23.88;80.75
22653;BME280;11493;43.344;26.226;2022-08-19T01:08:14;98888.16;;;23.84;80.98
22653;BME280;11493;43.344;26.226;2022-08-19T01:10:45;98878.16;;;23.79;81.19
22653;BME280;11493;43.344;26.226;2022-08-19T01:13:14;98886.25;;;23.74;81.55
22653;BME280;11493;43.344;26.226;2022-08-19T01:15:42;98880.25;;;23.72;81.42
22653;BME280;11493;43.344;26.226;2022-08-19T01:18:12;98882.28;;;23.71;81.92
22653;BME280;11493;43.344;26.226;2022-08-19T01:20:40;98873.44;;;23.69;82.11
22653;BME280;11493;43.344;26.226;2022-08-19T01:23:08;98877.06;;;23.70;82.35
22653;BME280;11493;43.344;26.226;2022-08-19T01:25:38;98885.91;;;23.68;82.42
22653;BME280;11493;43.344;26.226;2022-08-19T01:28:07;98883.50;;;23.67;82.47
22653;BME280;11493;43.344;26.226;2022-08-19T01:30:36;98883.09;;;23.68;82.56
22653;BME280;11493;43.344;26.226;2022-08-19T01:33:04;98878.31;;;23.65;82.49
22653;BME280;11493;43.344;26.226;2022-08-19T01:35:32;98873.53;;;23.58;82.79
22653;BME280;11493;43.344;26.226;2022-08-19T01:38:03;98873.56;;;23.51;83.07
22653;BME280;11493;43.344;26.226;2022-08-19T01:40:35;98873.19;;;23.46;83.05
22653;BME280;11493;43.344;26.226;2022-08-19T01:43:03;98872.00;;;23.43;83.01
22653;BME280;11493;43.344;26.226;2022-08-19T01:45:32;98875.22;;;23.42;82.90
22653;BME280;11493;43.344;26.226;2022-08-19T01:47:59;98873.66;;;23.37;82.83
22653;BME280;11493;43.344;26.226;2022-08-19T01:50:29;98882.13;;;23.30;83.05
22653;BME280;11493;43.344;26.226;2022-08-19T01:52:57;98887.78;;;23.23;83.55
22653;BME280;11493;43.344;26.226;2022-08-19T01:55:32;98883.81;;;23.17;84.04
22653;BME280;11493;43.344;26.226;2022-08-19T01:58:00;98880.63;;;23.11;84.06
22653;BME280;11493;43.344;26.226;2022-08-19T02:00:29;98882.66;;;23.07;83.59
22653;BME280;11493;43.344;26.226;2022-08-19T02:02:57;98881.09;;;23.03;83.25
22653;BME280;11493;43.344;26.226;2022-08-19T02:05:24;98881.53;;;23.01;83.40
22653;BME280;11493;43.344;26.226;2022-08-19T02:07:51;98885.53;;;23.00;83.76
22653;BME280;11493;43.344;26.226;2022-08-19T02:10:20;98884.34;;;22.98;84.22
22653;BME280;11493;43.344;26.226;2022-08-19T02:12:48;98884.38;;;22.90;84.27
22653;BME280;11493;43.344;26.226;2022-08-19T02:15:16;98886.03;;;22.81;84.83
22653;BME280;11493;43.344;26.226;2022-08-19T02:17:45;98880.41;;;22.74;85.34
22653;BME280;11493;43.344;26.226;2022-08-19T02:20:13;98885.22;;;22.73;85.56
22653;BME280;11493;43.344;26.226;2022-08-19T02:22:40;98897.25;;;22.70;86.02
22653;BME280;11493;43.344;26.226;2022-08-19T02:25:11;98898.84;;;22.75;85.79
22653;BME280;11493;43.344;26.226;2022-08-19T02:27:39;98902.47;;;22.72;85.50
22653;BME280;11493;43.344;26.226;2022-08-19T02:30:07;98906.47;;;22.67;85.93
22653;BME280;11493;43.344;26.226;2022-08-19T02:32:40;98914.50;;;22.69;86.15
22653;BME280;11493;43.344;26.226;2022-08-19T02:35:11;98910.91;;;22.65;85.78
22653;BME280;11493;43.344;26.226;2022-08-19T02:37:38;98911.72;;;22.58;86.44
22653;BME280;11493;43.344;26.226;2022-08-19T02:40:24;98922.16;;;22.54;85.80
22653;BME280;11493;43.344;26.226;2022-08-19T02:42:51;98912.97;;;22.43;86.09
22653;BME280;11493;43.344;26.226;2022-08-19T02:45:18;98923.00;;;22.33;87.05
22653;BME280;11493;43.344;26.226;2022-08-19T02:47:45;98918.19;;;22.30;86.92
22653;BME280;11493;43.344;26.226;2022-08-19T02:50:13;98917.44;;;22.26;86.96
22653;BME280;11493;43.344;26.226;2022-08-19T02:52:41;98917.44;;;22.22;87.01
22653;BME280;11493;43.344;26.226;2022-08-19T02:55:08;98920.63;;;22.17;87.29
22653;BME280;11493;43.344;26.226;2022-08-19T02:57:36;98925.84;;;22.12;87.74
22653;BME280;11493;43.344;26.226;2022-08-19T03:00:04;98922.66;;;22.13;87.94
22653;BME280;11493;43.344;26.226;2022-08-19T03:02:32;98923.06;;;22.12;88.19
22653;BME280;11493;43.344;26.226;2022-08-19T03:04:59;98919.44;;;22.08;88.44
22653;BME280;11493;43.344;26.226;2022-08-19T03:07:26;98922.66;;;22.03;88.82
22653;BME280;11493;43.344;26.226;2022-08-19T03:09:53;98915.03;;;22.00;88.45
22653;BME280;11493;43.344;26.226;2022-08-19T03:12:20;98923.84;;;22.02;88.38
22653;BME280;11493;43.344;26.226;2022-08-19T03:14:47;98919.06;;;22.02;88.37
22653;BME280;11493;43.344;26.226;2022-08-19T03:17:14;98929.81;;;22.00;88.09
22653;BME280;11493;43.344;26.226;2022-08-19T03:19:41;98926.63;;;21.98;88.62
22653;BME280;11493;43.344;26.226;2022-08-19T03:22:09;98923.81;;;21.98;88.84
22653;BME280;11493;43.344;26.226;2022-08-19T03:24:37;98929.03;;;21.96;88.90
22653;BME280;11493;43.344;26.226;2022-08-19T03:27:04;98935.03;;;21.98;89.03
22653;BME280;11493;43.344;26.226;2022-08-19T03:29:32;98927.81;;;21.93;89.01
22653;BME280;11493;43.344;26.226;2022-08-19T03:32:08;98929.03;;;21.96;88.86
22653;BME280;11493;43.344;26.226;2022-08-19T03:34:56;98936.63;;;21.99;88.89
22653;BME280;11493;43.344;26.226;2022-08-19T03:37:23;98935.88;;;22.02;88.66
22653;BME280;11493;43.344;26.226;2022-08-19T03:39:51;98925.81;;;21.90;88.67
22653;BME280;11493;43.344;26.226;2022-08-19T03:42:18;98948.25;;;21.97;88.90
22653;BME280;11493;43.344;26.226;2022-08-19T03:45:06;98948.63;;;21.96;88.74
22653;BME280;11493;43.344;26.226;2022-08-19T03:47:34;98956.63;;;21.90;89.47
22653;BME280;11493;43.344;26.226;2022-08-19T03:50:01;98949.44;;;21.93;89.42
22653;BME280;11493;43.344;26.226;2022-08-19T03:52:29;98955.03;;;21.93;89.67
22653;BME280;11493;43.344;26.226;2022-08-19T03:54:56;98950.22;;;21.90;89.72
22653;BME280;11493;43.344;26.226;2022-08-19T03:57:23;98955.03;;;21.86;89.61
22653;BME280;11493;43.344;26.226;2022-08-19T03:59:57;98946.63;;;21.86;89.78
22653;BME280;11493;43.344;26.226;2022-08-19T04:02:38;98950.22;;;21.90;89.70
22653;BME280;11493;43.344;26.226;2022-08-19T04:05:06;98952.63;;;21.95;89.34
22653;BME280;11493;43.344;26.226;2022-08-19T04:07:34;98959.03;;;21.99;89.04
22653;BME280;11493;43.344;26.226;2022-08-19T04:10:02;98957.88;;;22.04;88.79
22653;BME280;11493;43.344;26.226;2022-08-19T04:12:30;98953.47;;;22.06;88.07
22653;BME280;11493;43.344;26.226;2022-08-19T04:14:57;98958.28;;;22.13;88.07
22653;BME280;11493;43.344;26.226;2022-08-19T04:17:25;98959.88;;;22.14;87.59
22653;BME280;11493;43.344;26.226;2022-08-19T04:19:52;98963.06;;;22.19;87.90
22653;BME280;11493;43.344;26.226;2022-08-19T04:22:19;98966.28;;;22.21;87.94
22653;BME280;11493;43.344;26.226;2022-08-19T04:24:47;98968.63;;;22.30;87.94
22653;BME280;11493;43.344;26.226;2022-08-19T04:27:14;98975.03;;;22.34;87.66
22653;BME280;11493;43.344;26.226;2022-08-19T04:30:18;98975.84;;;22.38;87.89
22653;BME280;11493;43.344;26.226;2022-08-19T04:32:46;98985.03;;;22.42;87.78
22653;BME280;11493;43.344;26.226;2022-08-19T04:35:13;98981.03;;;22.43;87.65
22653;BME280;11493;43.344;26.226;2022-08-19T04:37:44;98985.84;;;22.50;87.18
22653;BME280;11493;43.344;26.226;2022-08-19T04:40:11;98987.84;;;22.53;86.87
22653;BME280;11493;43.344;26.226;2022-08-19T04:42:56;98985.81;;;22.57;86.54
22653;BME280;11493;43.344;26.226;2022-08-19T04:45:23;98979.81;;;22.66;86.46
22653;BME280;11493;43.344;26.226;2022-08-19T04:47:54;98983.38;;;22.77;85.49
22653;BME280;11493;43.344;26.226;2022-08-19T04:50:32;98980.97;;;22.89;84.92
22653;BME280;11493;43.344;26.226;2022-08-19T04:53:01;98986.56;;;22.93;84.85
22653;BME280;11493;43.344;26.226;2022-08-19T04:55:30;98984.56;;;22.97;84.70
22653;BME280;11493;43.344;26.226;2022-08-19T04:58:03;98983.69;;;23.07;84.32
22653;BME280;11493;43.344;26.226;2022-08-19T05:00:30;98983.28;;;23.09;84.43
22653;BME280;11493;43.344;26.226;2022-08-19T05:03:00;98988.47;;;23.14;84.09
22653;BME280;11493;43.344;26.226;2022-08-19T05:05:33;98984.41;;;23.25;83.86
22653;BME280;11493;43.344;26.226;2022-08-19T05:08:12;98981.16;;;23.34;83.91
22653;BME280;11493;43.344;26.226;2022-08-19T05:10:41;98983.56;;;23.36;83.71
22653;BME280;11493;43.344;26.226;2022-08-19T05:13:08;98992.72;;;23.47;83.64
22653;BME280;11493;43.344;26.226;2022-08-19T05:15:37;98987.91;;;23.54;83.51
22653;BME280;11493;43.344;26.226;2022-08-19T05:18:04;98999.09;;;23.62;83.00
22653;BME280;11493;43.344;26.226;2022-08-19T05:20:50;98986.59;;;23.70;82.79
22653;BME280;11493;43.344;26.226;2022-08-19T05:23:36;98988.91;;;23.82;82.46
22653;BME280;11493;43.344;26.226;2022-08-19T05:26:03;98993.66;;;23.92;81.58
22653;BME280;11493;43.344;26.226;2022-08-19T05:28:30;98990.34;;;24.04;81.33
22653;BME280;11493;43.344;26.226;2022-08-19T05:30:58;98985.06;;;24.13;80.79
22653;BME280;11493;43.344;26.226;2022-08-19T05:33:25;98991.41;;;24.24;80.87
22653;BME280;11493;43.344;26.226;2022-08-19T05:35:52;98988.09;;;24.37;80.08
22653;BME280;11493;43.344;26.226;2022-08-19T05:38:19;98985.94;;;24.51;79.47
22653;BME280;11493;43.344;26.226;2022-08-19T05:40:46;98989.78;;;24.68;78.78
22653;BME280;11493;43.344;26.226;2022-08-19T05:43:14;98978.88;;;24.74;78.31
22653;BME280;11493;43.344;26.226;2022-08-19T05:45:44;98985.16;;;24.88;77.32
22653;BME280;11493;43.344;26.226;2022-08-19T05:48:12;98980.94;;;25.07;76.84
22653;BME280;11493;43.344;26.226;2022-08-19T05:50:40;98986.34;;;25.25;75.53
22653;BME280;11493;43.344;26.226;2022-08-19T05:53:07;98984.13;;;25.40;74.72
22653;BME280;11493;43.344;26.226;2022-08-19T05:55:35;98972.66;;;25.54;74.55
22653;BME280;11493;43.344;26.226;2022-08-19T05:58:04;98977.38;;;25.64;73.79
22653;BME280;11493;43.344;26.226;2022-08-19T06:00:35;98991.69;;;25.77;73.21
22653;BME280;11493;43.344;26.226;2022-08-19T06:03:02;98989.06;;;25.90;72.76
22653;BME280;11493;43.344;26.226;2022-08-19T06:05:39;98984.97;;;25.94;72.69
22653;BME280;11493;43.344;26.226;2022-08-19T06:08:15;98991.69;;;26.00;72.57
22653;BME280;11493;43.344;26.226;2022-08-19T06:10:45;98984.66;;;26.12;72.00
22653;BME280;11493;43.344;26.226;2022-08-19T06:13:12;98984.84;;;26.25;71.93
22653;BME280;11493;43.344;26.226;2022-08-19T06:15:39;98979.06;;;26.35;71.90
22653;BME280;11493;43.344;26.226;2022-08-19T06:18:11;98984.94;;;26.44;71.49
22653;BME280;11493;43.344;26.226;2022-08-19T06:20:38;98977.94;;;26.52;70.90
22653;BME280;11493;43.344;26.226;2022-08-19T06:23:21;98990.13;;;26.69;69.95
22653;BME280;11493;43.344;26.226;2022-08-19T06:25:50;98987.88;;;26.80;69.92
22653;BME280;11493;43.344;26.226;2022-08-19T06:28:17;98980.00;;;26.92;68.74
22653;BME280;11493;43.344;26.226;2022-08-19T06:30:44;98980.47;;;27.10;66.98
22653;BME280;11493;43.344;26.226;2022-08-19T06:33:12;98976.63;;;27.20;66.88
22653;BME280;11493;43.344;26.226;2022-08-19T06:35:39;98981.56;;;27.36;66.88
22653;BME280;11493;43.344;26.226;2022-08-19T06:38:07;98973.53;;;27.50;66.11
22653;BME280;11493;43.344;26.226;2022-08-19T06:40:36;98975.34;;;27.61;65.39
22653;BME280;11493;43.344;26.226;2022-08-19T06:43:04;98968.66;;;27.71;65.41
22653;BME280;11493;43.344;26.226;2022-08-19T06:45:36;98967.69;;;27.77;65.95
22653;BME280;11493;43.344;26.226;2022-08-19T06:48:05;98971.50;;;27.87;64.88
22653;BME280;11493;43.344;26.226;2022-08-19T06:50:33;98968.34;;;28.01;64.82
22653;BME280;11493;43.344;26.226;2022-08-19T06:53:05;98968.44;;;28.14;63.98
22653;BME280;11493;43.344;26.226;2022-08-19T06:55:32;98970.00;;;28.31;62.67
22653;BME280;11493;43.344;26.226;2022-08-19T06:58:01;98957.63;;;28.41;62.51
22653;BME280;11493;43.344;26.226;2022-08-19T07:00:31;98960.28;;;28.49;62.67
22653;BME280;11493;43.344;26.226;2022-08-19T07:02:59;98964.16;;;28.55;61.91
22653;BME280;11493;43.344;26.226;2022-08-19T07:05:38;98953.25;;;28.69;61.42
22653;BME280;11493;43.344;26.226;2022-08-19T07:08:10;98968.00;;;28.77;60.82
22653;BME280;11493;43.344;26.226;2022-08-19T07:10:41;98961.53;;;28.76;60.54
22653;BME280;11493;43.344;26.226;2022-08-19T07:13:09;98960.13;;;28.85;60.17
22653;BME280;11493;43.344;26.226;2022-08-19T07:15:36;98958.00;;;28.89;60.96
22653;BME280;11493;43.344;26.226;2022-08-19T07:18:05;98961.28;;;29.00;60.14
22653;BME280;11493;43.344;26.226;2022-08-19T07:20:37;98968.00;;;29.06;60.15
22653;BME280;11493;43.344;26.226;2022-08-19T07:23:08;98968.81;;;29.19;59.45
22653;BME280;11493;43.344;26.226;2022-08-19T07:25:41;98966.78;;;29.20;59.21
22653;BME280;11493;43.344;26.226;2022-08-19T07:28:10;98967.72;;;29.29;59.11
22653;BME280;11493;43.344;26.226;2022-08-19T07:30:50;98971.59;;;29.35;58.15
22653;BME280;11493;43.344;26.226;2022-08-19T07:33:18;98964.78;;;29.33;58.63
22653;BME280;11493;43.344;26.226;2022-08-19T07:35:45;98968.13;;;29.44;58.26
22653;BME280;11493;43.344;26.226;2022-08-19T07:38:13;98967.78;;;29.55;58.31
22653;BME280;11493;43.344;26.226;2022-08-19T07:40:41;98972.56;;;29.58;58.47
22653;BME280;11493;43.344;26.226;2022-08-19T07:43:10;98980.50;;;29.63;58.25
22653;BME280;11493;43.344;26.226;2022-08-19T07:45:43;98966.88;;;29.58;57.85
22653;BME280;11493;43.344;26.226;2022-08-19T07:48:11;98971.41;;;29.42;57.32
22653;BME280;11493;43.344;26.226;2022-08-19T07:50:38;98967.56;;;29.49;57.81
22653;BME280;11493;43.344;26.226;2022-08-19T07:53:05;98967.00;;;29.54;57.72
22653;BME280;11493;43.344;26.226;2022-08-19T07:55:32;98965.09;;;29.64;57.41
22653;BME280;11493;43.344;26.226;2022-08-19T07:58:09;98969.38;;;29.81;57.44
22653;BME280;11493;43.344;26.226;2022-08-19T08:00:37;98956.31;;;29.96;57.97
22653;BME280;11493;43.344;26.226;2022-08-19T08:03:04;98959.41;;;30.15;57.63
22653;BME280;11493;43.344;26.226;2022-08-19T08:05:31;98963.00;;;30.28;57.21
22653;BME280;11493;43.344;26.226;2022-08-19T08:08:17;98961.53;;;30.23;53.33
22653;BME280;11493;43.344;26.226;2022-08-19T08:11:03;98971.50;;;30.28;53.63
22653;BME280;11493;43.344;26.226;2022-08-19T08:13:34;98959.91;;;30.35;53.42
22653;BME280;11493;43.344;26.226;2022-08-19T08:16:04;98957.31;;;30.28;53.53
22653;BME280;11493;43.344;26.226;2022-08-19T08:18:39;98953.25;;;30.29;53.62
22653;BME280;11493;43.344;26.226;2022-08-19T08:21:16;98947.56;;;30.29;53.33
22653;BME280;11493;43.344;26.226;2022-08-19T08:23:43;98950.09;;;30.01;53.90
22653;BME280;11493;43.344;26.226;2022-08-19T08:26:11;98952.59;;;30.12;54.25
22653;BME280;11493;43.344;26.226;2022-08-19T08:28:41;98943.72;;;30.23;53.96
22653;BME280;11493;43.344;26.226;2022-08-19T08:31:13;98943.25;;;30.24;54.12
22653;BME280;11493;43.344;26.226;2022-08-19T08:33:41;98943.34;;;30.33;54.29
22653;BME280;11493;43.344;26.226;2022-08-19T08:36:09;98946.22;;;30.21;52.30
22653;BME280;11493;43.344;26.226;2022-08-19T08:38:37;98942.56;;;30.33;53.10
22653;BME280;11493;43.344;26.226;2022-08-19T08:43:48;98941.97;;;30.72;51.72
22653;BME280;11493;43.344;26.226;2022-08-19T08:49:01;98943.69;;;30.70;51.27
22653;BME280;11493;43.344;26.226;2022-08-19T08:54:11;98943.16;;;30.62;51.36
22653;BME280;11493;43.344;26.226;2022-08-19T08:56:39;98940.72;;;30.39;52.38
22653;BME280;11493;43.344;26.226;2022-08-19T08:59:12;98930.38;;;30.45;52.44
22653;BME280;11493;43.344;26.226;2022-08-19T09:01:43;98932.19;;;30.73;52.50
22653;BME280;11493;43.344;26.226;2022-08-19T09:04:11;98938.63;;;30.87;51.50
22653;BME280;11493;43.344;26.226;2022-08-19T09:06:53;98935.97;;;30.92;51.77
22653;BME280;11493;43.344;26.226;2022-08-19T09:11:56;98946.72;;;30.76;50.49
22653;BME280;11493;43.344;26.226;2022-08-19T09:14:36;98925.81;;;30.82;50.42
22653;BME280;11493;43.344;26.226;2022-08-19T09:17:19;98923.75;;;30.83;49.86
22653;BME280;11493;43.344;26.226;2022-08-19T09:19:52;98926.66;;;30.92;48.85
22653;BME280;11493;43.344;26.226;2022-08-19T09:22:19;98929.91;;;31.03;48.97
22653;BME280;11493;43.344;26.226;2022-08-19T09:24:51;98927.19;;;30.99;48.47
22653;BME280;11493;43.344;26.226;2022-08-19T09:27:19;98931.44;;;31.17;48.33
22653;BME280;11493;43.344;26.226;2022-08-19T09:30:08;98928.59;;;31.17;48.74
22653;BME280;11493;43.344;26.226;2022-08-19T09:32:36;98933.03;;;31.18;48.26
22653;BME280;11493;43.344;26.226;2022-08-19T09:35:08;98930.81;;;31.00;48.41
22653;BME280;11493;43.344;26.226;2022-08-19T09:37:35;98923.22;;;30.97;48.88
22653;BME280;11493;43.344;26.226;2022-08-19T09:40:06;98924.47;;;30.96;48.78
22653;BME280;11493;43.344;26.226;2022-08-19T09:42:37;98924.53;;;31.05;48.78
22653;BME280;11493;43.344;26.226;2022-08-19T09:45:17;98915.81;;;31.21;48.30
22653;BME280;11493;43.344;26.226;2022-08-19T09:47:48;98925.69;;;31.38;48.01
22653;BME280;11493;43.344;26.226;2022-08-19T09:50:16;98923.59;;;31.61;47.17
22653;BME280;11493;43.344;26.226;2022-08-19T09:52:45;98914.50;;;31.75;46.77
22653;BME280;11493;43.344;26.226;2022-08-19T09:55:23;98916.91;;;31.77;46.28
22653;BME280;11493;43.344;26.226;2022-08-19T09:57:58;98924.19;;;31.87;45.80
22653;BME280;11493;43.344;26.226;2022-08-19T10:00:26;98916.25;;;31.73;45.91
22653;BME280;11493;43.344;26.226;2022-08-19T10:02:53;98918.28;;;31.72;46.69
22653;BME280;11493;43.344;26.226;2022-08-19T10:05:20;98903.59;;;31.74;47.52
22653;BME280;11493;43.344;26.226;2022-08-19T10:08:08;98920.56;;;31.86;47.25
22653;BME280;11493;43.344;26.226;2022-08-19T10:10:40;98915.66;;;31.87;47.43
22653;BME280;11493;43.344;26.226;2022-08-19T10:13:14;98917.09;;;32.00;47.04
22653;BME280;11493;43.344;26.226;2022-08-19T10:15:41;98917.75;;;32.05;46.81
22653;BME280;11493;43.344;26.226;2022-08-19T10:18:14;98910.94;;;32.02;46.99
22653;BME280;11493;43.344;26.226;2022-08-19T10:20:41;98921.19;;;31.81;45.94
22653;BME280;11493;43.344;26.226;2022-08-19T10:23:09;98920.19;;;31.44;46.43
22653;BME280;11493;43.344;26.226;2022-08-19T10:25:36;98916.59;;;31.53;46.40
22653;BME280;11493;43.344;26.226;2022-08-19T10:28:09;98907.88;;;31.78;46.74
22653;BME280;11493;43.344;26.226;2022-08-19T10:30:39;98907.25;;;31.74;45.84
22653;BME280;11493;43.344;26.226;2022-08-19T10:33:06;98909.03;;;31.99;45.92
22653;BME280;11493;43.344;26.226;2022-08-19T10:35:37;98920.88;;;31.88;45.65
22653;BME280;11493;43.344;26.226;2022-08-19T10:38:23;98908.69;;;31.79;46.31
22653;BME280;11493;43.344;26.226;2022-08-19T10:40:57;98913.97;;;31.67;46.39
22653;BME280;11493;43.344;26.226;2022-08-19T10:43:25;98901.44;;;31.56;46.31
22653;BME280;11493;43.344;26.226;2022-08-19T10:45:52;98906.84;;;31.63;46.33
22653;BME280;11493;43.344;26.226;2022-08-19T10:48:22;98909.91;;;31.37;45.89
22653;BME280;11493;43.344;26.226;2022-08-19T10:50:49;98903.56;;;31.33;46.35
22653;BME280;11493;43.344;26.226;2022-08-19T10:53:35;98902.63;;;31.36;46.37
22653;BME280;11493;43.344;26.226;2022-08-19T10:56:02;98905.31;;;31.40;46.40
22653;BME280;11493;43.344;26.226;2022-08-19T10:58:47;98900.69;;;31.64;45.84
22653;BME280;11493;43.344;26.226;2022-08-19T11:01:15;98908.19;;;31.71;45.29
22653;BME280;11493;43.344;26.226;2022-08-19T11:03:42;98895.47;;;31.63;45.44
22653;BME280;11493;43.344;26.226;2022-08-19T11:06:17;98890.44;;;31.67;45.11
22653;BME280;11493;43.344;26.226;2022-08-19T11:08:45;98894.00;;;31.80;44.95
22653;BME280;11493;43.344;26.226;2022-08-19T11:11:13;98888.78;;;31.97;44.20
22653;BME280;11493;43.344;26.226;2022-08-19T11:13:40;98898.78;;;32.20;44.22
22653;BME280;11493;43.344;26.226;2022-08-19T11:16:12;98899.63;;;32.29;44.27
22653;BME280;11493;43.344;26.226;2022-08-19T11:18:41;98895.28;;;32.07;43.95
22653;BME280;11493;43.344;26.226;2022-08-19T11:21:14;98901.47;;;32.14;43.33
22653;BME280;11493;43.344;26.226;2022-08-19T11:23:43;98894.09;;;32.35;43.20
22653;BME280;11493;43.344;26.226;2022-08-19T11:26:12;98882.72;;;32.44;43.19
22653;BME280;11493;43.344;26.226;2022-08-19T11:28:39;98888.25;;;32.48;41.72
22653;BME280;11493;43.344;26.226;2022-08-19T11:31:13;98884.78;;;32.53;42.11
22653;BME280;11493;43.344;26.226;2022-08-19T11:33:41;98868.31;;;32.57;40.66
22653;BME280;11493;43.344;26.226;2022-08-19T11:36:14;98869.22;;;32.72;41.72
22653;BME280;11493;43.344;26.226;2022-08-19T11:38:42;98875.09;;;32.87;41.88
22653;BME280;11493;43.344;26.226;2022-08-19T11:41:09;98865.59;;;32.81;41.99
22653;BME280;11493;43.344;26.226;2022-08-19T11:43:36;98874.81;;;32.30;43.54
22653;BME280;11493;43.344;26.226;2022-08-19T11:46:04;98883.34;;;32.39;43.51
22653;BME280;11493;43.344;26.226;2022-08-19T11:48:34;98874.81;;;32.57;42.56
22653;BME280;11493;43.344;26.226;2022-08-19T11:51:08;98868.75;;;32.74;40.89
22653;BME280;11493;43.344;26.226;2022-08-19T11:53:36;98861.97;;;32.80;39.42
22653;BME280;11493;43.344;26.226;2022-08-19T11:56:04;98857.97;;;32.96;40.31
22653;BME280;11493;43.344;26.226;2022-08-19T11:58:31;98853.56;;;32.95;40.43
22653;BME280;11493;43.344;26.226;2022-08-19T12:00:58;98847.97;;;33.10;39.71
22653;BME280;11493;43.344;26.226;2022-08-19T12:03:25;98855.69;;;33.27;40.16
22653;BME280;11493;43.344;26.226;2022-08-19T12:05:52;98851.06;;;33.39;38.78
22653;BME280;11493;43.344;26.226;2022-08-19T12:08:20;98855.59;;;33.46;39.55
22653;BME280;11493;43.344;26.226;2022-08-19T12:10:47;98853.38;;;33.50;38.88
22653;BME280;11493;43.344;26.226;2022-08-19T12:13:14;98851.91;;;33.54;39.21
22653;BME280;11493;43.344;26.226;2022-08-19T12:15:46;98843.41;;;33.45;39.86
22653;BME280;11493;43.344;26.226;2022-08-19T12:18:14;98848.59;;;33.56;39.30
22653;BME280;11493;43.344;26.226;2022-08-19T12:20:42;98850.09;;;33.42;39.79
22653;BME280;11493;43.344;26.226;2022-08-19T12:23:09;98846.31;;;33.36;40.24
22653;BME280;11493;43.344;26.226;2022-08-19T12:25:42;98844.56;;;33.39;40.37
22653;BME280;11493;43.344;26.226;2022-08-19T12:28:24;98834.53;;;33.43;39.69
22653;BME280;11493;43.344;26.226;2022-08-19T12:30:51;98835.28;;;33.53;38.73
22653;BME280;11493;43.344;26.226;2022-08-19T12:33:19;98844.47;;;33.57;39.50
22653;BME280;11493;43.344;26.226;2022-08-19T12:35:46;98839.16;;;33.74;40.19
22653;BME280;11493;43.344;26.226;2022-08-19T12:38:16;98831.97;;;33.87;39.68
22653;BME280;11493;43.344;26.226;2022-08-19T12:40:46;98832.44;;;33.53;39.79
22653;BME280;11493;43.344;26.226;2022-08-19T12:43:14;98831.94;;;33.21;39.69
22653;BME280;11493;43.344;26.226;2022-08-19T12:45:42;98834.13;;;33.36;39.43
22653;BME280;11493;43.344;26.226;2022-08-19T12:48:12;98830.13;;;33.42;39.39
22653;BME280;11493;43.344;26.226;2022-08-19T12:51:00;98831.81;;;33.49;39.73
22653;BME280;11493;43.344;26.226;2022-08-19T12:53:28;98839.31;;;33.70;38.49
22653;BME280;11493;43.344;26.226;2022-08-19T12:55:56;98821.69;;;33.81;37.86
22653;BME280;11493;43.344;26.226;2022-08-19T12:58:23;98820.91;;;33.80;38.67
22653;BME280;11493;43.344;26.226;2022-08-19T13:00:53;98825.63;;;33.83;37.51
22653;BME280;11493;43.344;26.226;2022-08-19T13:03:20;98826.63;;;33.80;38.03
22653;BME280;11493;43.344;26.226;2022-08-19T13:05:50;98826.78;;;34.01;38.12
22653;BME280;11493;43.344;26.226;2022-08-19T13:08:17;98820.84;;;34.13;37.90
22653;BME280;11493;43.344;26.226;2022-08-19T13:10:45;98821.16;;;34.30;37.78
22653;BME280;11493;43.344;26.226;2022-08-19T13:13:12;98823.50;;;34.17;37.23
22653;BME280;11493;43.344;26.226;2022-08-19T13:15:39;98826.84;;;33.91;37.02